Time;durP1;ratioP1;P1;durP2;ratioP2;P2;SDS_P1;SDS_P2;PMS_P1;PMS_P2;Temp;Humidity;BMP_temperature;BMP_pressure;BME280_temperature;BME280_humidity;BME280_pressure;Samples;Min_cycle;Max_cycle;Signal;HPM_P1;HPM_P2
2021/12/17 07:00:17;;;;;;;10.05;7.57;;;;;;;;;;10548144;28;20039;-82
2021/12/17 07:10:43;;;;;;;9.95;7.43;;;;;;;;;;10547042;28;20028;-82
2021/12/17 07:21:21;;;;;;;9.02;6.95;;;;;;;;;;10548058;28;20183;-80
2021/12/17 07:42:03;;;;;;;13.77;10.80;;;;;;;;;;10543179;28;20062;-78
2021/12/17 07:47:04;;;;;;;9.27;6.88;;;;;;;;;;10525485;28;20036;-80
2021/12/17 07:52:05;;;;;;;11.27;8.85;;;;;;;;;;10543781;28;20031;-79
2021/12/17 07:57:06;;;;;;;9.40;7.40;;;;;;;;;;10518305;28;20017;-82
2021/12/17 08:02:07;;;;;;;7.25;5.85;;;;;;;;;;10495786;28;20063;-81
2021/12/17 08:07:08;;;;;;;10.95;7.68;;;;;;;;;;10499518;28;20031;-80
2021/12/17 08:12:10;;;;;;;9.57;7.68;;;;;;;;;;10504510;28;20021;-83
2021/12/17 08:17:36;;;;;;;8.95;6.95;;;;;;;;;;10502097;28;20402;-86
2021/12/17 08:28:03;;;;;;;9.48;7.25;;;;;;;;;;10525385;28;20029;-85
2021/12/17 08:33:05;;;;;;;9.02;7.20;;;;;;;;;;10531637;28;20028;-86
2021/12/17 08:38:08;;;;;;;9.40;6.90;;;;;;;;;;10502021;28;20111;-87
2021/12/17 08:43:09;;;;;;;8.95;6.75;;;;;;;;;;10495898;28;20069;-86
2021/12/17 08:48:10;;;;;;;8.60;6.82;;;;;;;;;;10493616;28;20037;-86
2021/12/17 08:53:11;;;;;;;12.75;9.30;;;;;;;;;;10494012;28;20474;-86
2021/12/17 08:58:14;;;;;;;11.27;9.30;;;;;;;;;;10492007;28;20024;-86
2021/12/17 09:03:15;;;;;;;10.65;8.18;;;;;;;;;;10492442;28;20024;-86
2021/12/17 09:08:16;;;;;;;9.30;6.70;;;;;;;;;;10510533;28;20028;-86
2021/12/17 09:13:17;;;;;;;8.48;6.82;;;;;;;;;;10494424;28;20037;-86
2021/12/17 09:18:18;;;;;;;10.98;8.57;;;;;;;;;;10498173;28;20036;-86
2021/12/17 09:23:19;;;;;;;8.82;7.03;;;;;;;;;;10496984;28;20474;-86
2021/12/17 09:28:20;;;;;;;8.32;6.53;;;;;;;;;;10494903;28;20090;-85
2021/12/17 09:33:21;;;;;;;8.63;5.88;;;;;;;;;;10514340;28;20025;-86
2021/12/17 09:38:22;;;;;;;7.00;5.32;;;;;;;;;;10496223;28;20092;-86
2021/12/17 09:43:24;;;;;;;5.90;4.95;;;;;;;;;;10495206;28;20028;-86
2021/12/17 09:48:25;;;;;;;6.53;5.28;;;;;;;;;;10495732;28;20408;-84
2021/12/17 09:53:28;;;;;;;5.28;4.05;;;;;;;;;;10496423;28;20031;-87
2021/12/17 09:58:29;;;;;;;4.72;3.80;;;;;;;;;;10501207;28;20474;-85
2021/12/17 10:03:30;;;;;;;4.57;3.30;;;;;;;;;;10500317;28;20025;-85
2021/12/17 10:08:31;;;;;;;3.85;3.00;;;;;;;;;;10499019;28;20438;-84
2021/12/17 10:13:33;;;;;;;4.05;2.85;;;;;;;;;;10496349;28;20028;-85
2021/12/17 10:18:39;;;;;;;4.35;2.90;;;;;;;;;;10499909;28;20078;-86
2021/12/17 10:23:44;;;;;;;3.72;2.58;;;;;;;;;;10504987;28;20024;-82
2021/12/17 10:28:55;;;;;;;3.75;2.38;;;;;;;;;;10507306;28;20529;-87
2021/12/17 10:34:00;;;;;;;11.25;3.33;;;;;;;;;;10486666;28;20016;-83
2021/12/17 10:39:04;;;;;;;6.97;5.53;;;;;;;;;;10488277;28;20036;-86
2021/12/17 10:44:08;;;;;;;7.82;6.18;;;;;;;;;;10486581;28;20048;-83
2021/12/17 10:54:13;;;;;;;5.07;3.58;;;;;;;;;;10518151;28;20438;-83
2021/12/17 10:59:25;;;;;;;4.57;3.00;;;;;;;;;;10498568;28;20130;-83
2021/12/17 11:04:26;;;;;;;3.08;2.40;;;;;;;;;;10501098;28;20075;-84
2021/12/17 11:09:38;;;;;;;5.15;2.22;;;;;;;;;;10521363;28;20105;-83
2021/12/17 11:14:39;;;;;;;2.72;1.80;;;;;;;;;;10520864;28;20024;-85
2021/12/17 11:19:41;;;;;;;2.75;1.80;;;;;;;;;;10506473;28;20025;-85
2021/12/17 11:24:42;;;;;;;2.58;1.80;;;;;;;;;;10501484;28;20115;-84
2021/12/17 11:29:43;;;;;;;2.75;2.08;;;;;;;;;;10506868;28;20021;-85
2021/12/17 11:34:44;;;;;;;3.15;1.90;;;;;;;;;;10489469;28;20367;-86
2021/12/17 11:39:51;;;;;;;10.88;9.00;;;;;;;;;;10498987;28;20044;-85
2021/12/17 11:45:22;;;;;;;4.50;1.98;;;;;;;;;;10515903;28;20115;-87
2021/12/17 11:50:16;;;;;;;3.40;1.92;;;;;;;;;;10515977;28;20031;-85
2021/12/17 11:55:37;;;;;;;3.50;1.80;;;;;;;;;;10514002;28;20048;-85
2021/12/17 12:00:41;;;;;;;3.05;1.70;;;;;;;;;;10515458;28;20017;-86
2021/12/17 12:05:43;;;;;;;4.97;2.65;;;;;;;;;;10494078;28;20104;-87
2021/12/17 12:11:01;;;;;;;3.28;1.90;;;;;;;;;;10493246;28;20496;-86
2021/12/17 12:16:04;;;;;;;9.27;8.15;;;;;;;;;;10493225;28;20174;-86
2021/12/17 12:21:05;;;;;;;4.82;3.00;;;;;;;;;;10528515;28;20036;-85
2021/12/17 12:26:13;;;;;;;3.05;2.30;;;;;;;;;;10504483;28;20060;-85
2021/12/17 12:31:17;;;;;;;4.72;2.70;;;;;;;;;;10500843;28;20021;-86
2021/12/17 12:36:38;;;;;;;4.75;1.98;;;;;;;;;;10506777;28;20044;-84
2021/12/17 12:41:39;;;;;;;;;;;;;;;;;;10513991;28;20039;-85
2021/12/17 12:46:50;;;;;;;4.50;3.30;;;;;;;;;;10496263;28;20301;-85
2021/12/17 12:52:11;;;;;;;3.58;3.20;;;;;;;;;;10495447;28;20040;-86
2021/12/17 12:57:12;;;;;;;;;;;;;;;;;;10491634;28;20044;-85
2021/12/17 13:02:13;;;;;;;5.75;3.65;;;;;;;;;;10493683;28;20312;-85
2021/12/17 13:07:15;;;;;;;2.72;1.90;;;;;;;;;;10497829;28;20028;-85
2021/12/17 13:12:16;;;;;;;2.63;1.70;;;;;;;;;;10514479;28;20024;-86
2021/12/17 13:22:56;;;;;;;2.40;1.63;;;;;;;;;;10514901;28;20033;-86
2021/12/17 13:27:57;;;;;;;1.80;1.33;;;;;;;;;;10497543;28;20378;-86
2021/12/17 13:32:58;;;;;;;2.80;1.60;;;;;;;;;;10497652;28;20028;-86
2021/12/17 13:38:02;;;;;;;2.85;1.50;;;;;;;;;;10489748;28;20025;-87
2021/12/17 13:43:03;;;;;;;6.95;4.40;;;;;;;;;;10492518;28;20115;-86
2021/12/17 13:48:04;;;;;;;3.53;2.50;;;;;;;;;;10507110;28;20090;-86
2021/12/17 13:53:11;;;;;;;3.25;2.15;;;;;;;;;;10493807;28;20074;-85
2021/12/17 13:58:23;;;;;;;4.28;2.40;;;;;;;;;;10495832;28;20115;-85
2021/12/17 14:03:28;;;;;;;4.65;2.70;;;;;;;;;;10512451;28;20025;-86
2021/12/17 14:08:29;;;;;;;2.70;2.05;;;;;;;;;;10491714;28;20395;-86
2021/12/17 14:13:30;;;;;;;4.03;2.38;;;;;;;;;;10494338;28;20216;-85
2021/12/17 14:18:31;;;;;;;4.60;3.00;;;;;;;;;;10498103;28;20095;-84
2021/12/17 14:23:33;;;;;;;3.85;2.60;;;;;;;;;;10515100;28;20037;-85
2021/12/17 14:28:36;;;;;;;2.92;2.20;;;;;;;;;;10496282;28;20493;-83
2021/12/17 14:33:42;;;;;;;3.40;2.33;;;;;;;;;;10493024;28;20075;-83
2021/12/17 14:38:50;;;;;;;4.65;2.47;;;;;;;;;;10491426;28;20032;-84
2021/12/17 14:43:57;;;;;;;3.97;2.92;;;;;;;;;;10489393;28;20032;-83
2021/12/17 14:49:19;;;;;;;3.67;2.28;;;;;;;;;;10488554;28;20398;-82
2021/12/17 14:57:22;;;;;;;3.95;2.40;;;;;;;;;;10506015;28;20445;-83
2021/12/17 15:05:11;;;;;;;3.67;2.30;;;;;;;;;;10505784;28;20037;-82
2021/12/17 15:10:13;;;;;;;5.13;2.13;;;;;;;;;;10492607;28;20024;-81
2021/12/17 15:15:16;;;;;;;3.45;2.20;;;;;;;;;;10514016;28;20028;-82
2021/12/17 15:20:19;;;;;;;5.32;2.20;;;;;;;;;;10515130;28;20036;-83
2021/12/17 15:25:20;;;;;;;3.10;2.17;;;;;;;;;;10511376;28;20081;-81
2021/12/17 15:30:23;;;;;;;3.00;2.00;;;;;;;;;;10513319;28;20060;-83
2021/12/17 15:35:26;;;;;;;2.78;2.47;;;;;;;;;;10494153;28;20032;-82
2021/12/17 15:40:28;;;;;;;4.28;2.00;;;;;;;;;;10493835;28;20032;-82
2021/12/17 15:45:30;;;;;;;4.28;1.77;;;;;;;;;;10513126;28;20028;-83
2021/12/17 15:50:31;;;;;;;3.90;2.08;;;;;;;;;;10493078;28;20039;-83
2021/12/17 15:55:32;;;;;;;4.55;2.80;;;;;;;;;;10503735;28;20024;-83
2021/12/17 16:00:34;;;;;;;5.30;2.65;;;;;;;;;;10505827;28;20051;-80
2021/12/17 16:05:37;;;;;;;4.22;2.58;;;;;;;;;;10503957;28;20035;-80
2021/12/17 16:21:17;;;;;;;7.13;3.30;;;;;;;;;;10528637;28;20028;-80
2021/12/17 16:32:23;;;;;;;4.88;2.90;;;;;;;;;;10509015;28;20033;-85
2021/12/17 16:43:46;;;;;;;3.75;2.60;;;;;;;;;;10540479;28;20043;-86
2021/12/17 17:06:22;;;;;;;4.40;2.67;;;;;;;;;;10495883;28;20029;-87
2021/12/17 17:11:35;;;;;;;4.65;2.25;;;;;;;;;;10496461;28;20045;-85
2021/12/17 17:16:41;;;;;;;3.13;2.40;;;;;;;;;;10478287;28;20037;-84
2021/12/17 17:22:18;;;;;;;4.00;2.60;;;;;;;;;;10535706;28;20029;-86
2021/12/17 20:34:12;;;;;;;2.42;2.10;;;;;;;;;;10456638;22;20040;-86
2021/12/17 20:39:15;;;;;;;3.90;3.08;;;;;;;;;;10427720;28;20038;-87
2021/12/17 20:44:17;;;;;;;5.22;4.60;;;;;;;;;;10426579;28;20030;-88
2021/12/17 20:49:19;;;;;;;5.78;4.53;;;;;;;;;;10418352;28;20033;-87
2021/12/17 20:54:21;;;;;;;5.05;4.50;;;;;;;;;;10435243;28;20064;-88
2021/12/17 20:59:22;;;;;;;3.35;2.67;;;;;;;;;;10423851;28;20082;-87
2021/12/17 21:04:23;;;;;;;5.80;4.72;;;;;;;;;;10423615;28;20109;-87
2021/12/17 21:09:24;;;;;;;5.93;5.15;;;;;;;;;;10436187;28;20129;-87
2021/12/17 21:14:26;;;;;;;4.97;4.38;;;;;;;;;;10433159;28;20048;-88
2021/12/17 21:19:27;;;;;;;4.28;3.88;;;;;;;;;;10416063;28;20033;-87
2021/12/17 21:24:29;;;;;;;10.27;8.40;;;;;;;;;;10420176;28;20029;-87
2021/12/17 21:29:30;;;;;;;4.80;3.92;;;;;;;;;;10419604;28;20466;-88
2021/12/17 21:34:31;;;;;;;6.00;5.32;;;;;;;;;;10419886;28;20561;-87
2021/12/17 21:39:32;;;;;;;4.20;3.60;;;;;;;;;;10418260;28;20034;-87
2021/12/17 21:44:39;;;;;;;5.38;4.07;;;;;;;;;;10417369;28;20158;-87
2021/12/17 21:49:40;;;;;;;5.15;4.22;;;;;;;;;;10436652;28;20116;-87
2021/12/17 21:54:42;;;;;;;4.40;3.70;;;;;;;;;;10461359;28;20414;-87
2021/12/17 21:59:43;;;;;;;4.35;3.63;;;;;;;;;;10454836;28;20029;-87
2021/12/17 22:04:44;;;;;;;5.03;4.35;;;;;;;;;;10448539;28;20040;-87
2021/12/17 22:09:45;;;;;;;4.00;3.00;;;;;;;;;;10450885;28;20423;-86
2021/12/17 22:14:46;;;;;;;4.63;4.13;;;;;;;;;;10461255;28;20041;-88
2021/12/17 22:19:53;;;;;;;4.28;2.72;;;;;;;;;;10457734;28;20037;-88
2021/12/17 22:24:54;;;;;;;6.65;5.45;;;;;;;;;;10456945;28;20028;-87
2021/12/17 22:29:55;;;;;;;11.30;9.25;;;;;;;;;;10456977;28;20039;-88
2021/12/17 22:34:56;;;;;;;5.05;3.83;;;;;;;;;;10456199;28;20414;-88
2021/12/17 22:39:57;;;;;;;5.43;4.05;;;;;;;;;;10454866;28;20039;-87
2021/12/17 22:44:58;;;;;;;6.68;5.70;;;;;;;;;;10456815;28;20037;-88
2021/12/17 22:49:59;;;;;;;8.85;7.60;;;;;;;;;;10457778;28;20033;-87
2021/12/17 22:55:00;;;;;;;5.25;4.60;;;;;;;;;;10477587;28;20033;-87
2021/12/17 23:00:01;;;;;;;5.80;4.10;;;;;;;;;;10475596;28;20479;-85
2021/12/17 23:05:07;;;;;;;3.05;2.72;;;;;;;;;;10460279;28;20040;-87
2021/12/17 23:10:09;;;;;;;5.97;4.95;;;;;;;;;;10457607;28;20080;-87
2021/12/17 23:15:10;;;;;;;6.55;5.85;;;;;;;;;;10477569;28;20059;-86
2021/12/17 23:20:12;;;;;;;8.13;6.82;;;;;;;;;;10456357;28;20553;-87
2021/12/17 23:25:12;;;;;;;4.75;4.25;;;;;;;;;;10457695;28;20085;-86
2021/12/17 23:30:13;;;;;;;4.35;3.95;;;;;;;;;;10462162;28;20044;-87
2021/12/17 23:35:18;;;;;;;5.78;4.70;;;;;;;;;;10466859;28;20497;-86
2021/12/17 23:40:19;;;;;;;7.72;6.35;;;;;;;;;;10468150;28;20454;-86
2021/12/17 23:45:20;;;;;;;6.38;5.57;;;;;;;;;;10494870;28;20041;-83
2021/12/17 23:50:21;;;;;;;6.78;6.00;;;;;;;;;;10492921;28;20499;-84
2021/12/17 23:55:22;;;;;;;7.95;7.07;;;;;;;;;;10496189;28;20049;-85
